METAR AND TAF INFORMATION
METAR FOR KUIL
ADDS - METARS form results

(1958 UTC 18 January 2019)
Data provider http://aviationweather.gov/metar/data/
 
METAR text: KUIL 181953Z AUTO 14013G21KT 10SM FEW026 BKN033 OVC041 08/M02 A2999 RMK AO2 RAB08E31 SLP156 P0001 T00831017
Conditions at: KUIL (QUILLAYUTE , WA, US) observed 1953 UTC 18 January 2019
Temperature: 8.3°C (47°F)
Dewpoint: -1.7°C (29°F) [RH = 49%]
Pressure (altimeter): 29.99 inches Hg (1015.7 mb)
[Sea-level pressure: 1015.6 mb]
Winds: from the SE (140 degrees) at 15 MPH (13 knots; 6.7 m/s)
gusting to 24 MPH (21 knots; 10.8 m/s)
Visibility: 10 or more miles (16+ km)
Ceiling: 3300 feet AGL
Clouds: few clouds at 2600 feet AGL
broken clouds at 3300 feet AGL
overcast cloud deck at 4100 feet AGL
Weather: automated observation with no human augmentation;
there may or may not be significant weather present at this time

METAR text: KUIL 181904Z AUTO 14010G20KT 10SM SCT015 SCT030 BKN037 09/M02 A3001 RMK AO2 T00891017
Conditions at: KUIL (QUILLAYUTE , WA, US) observed 1904 UTC 18 January 2019
Temperature: 8.9°C (48°F)
Dewpoint: -1.7°C (29°F) [RH = 47%]
Pressure (altimeter): 30.01 inches Hg (1016.3 mb)
Winds: from the SE (140 degrees) at 12 MPH (10 knots; 5.1 m/s)
gusting to 23 MPH (20 knots; 10.3 m/s)
Visibility: 10 or more miles (16+ km)
Ceiling: 3700 feet AGL
Clouds: scattered clouds at 1500 feet AGL
scattered clouds at 3000 feet AGL
broken clouds at 3700 feet AGL
Weather: automated observation with no human augmentation;
there may or may not be significant weather present at this time

 AIRPORT MAP

 RUNWAY INFORMATION
Runway 04 Runway length 4210 ft Runway width 100 ft
Runway elevation 175 ft Runway displaced threshold 0 ft Runway heading 58
Runway 22 Runway length 4210 ft Runway width 100 ft
Runway elevation 194 ft Runway displaced threshold 1089 ft Runway heading 238

 AIRPORT FREQUENCIES
Type ASOS Name ASOS Frequency 135.225 MHZ
Type CTAF Name CTAF Frequency 122.9 MHZ

 AIRPORT NEAR NAVIGATION AIDS



Powered by Virtual Airlines Manager [v2.6.2]